createdAt,value
2022-08-19T00:03:31.089Z,57.20
2022-08-19T00:13:33.114Z,61.80
2022-08-19T00:23:37.612Z,62.30
2022-08-19T00:33:39.870Z,60.90
2022-08-19T00:43:42.594Z,66.80
2022-08-19T00:53:45.252Z,67.50
2022-08-19T01:03:57.925Z,70.00
2022-08-19T01:14:03.010Z,68.70
2022-08-19T01:24:05.399Z,65.90
2022-08-19T01:34:07.596Z,67.40
2022-08-19T01:44:18.763Z,67.30
2022-08-19T01:54:27.614Z,62.30
2022-08-19T02:04:31.075Z,64.80
2022-08-19T02:14:33.552Z,67.00
2022-08-19T02:24:35.592Z,62.50
2022-08-19T02:34:38.234Z,65.80
2022-08-19T02:44:40.173Z,68.70
2022-08-19T02:54:42.196Z,70.70
2022-08-19T03:04:45.632Z,70.40
2022-08-19T03:14:50.074Z,71.70
2022-08-19T03:24:52.240Z,71.50
2022-08-19T03:34:55.106Z,67.80
2022-08-19T03:44:56.917Z,73.70
2022-08-19T03:54:59.094Z,71.60
2022-08-19T04:05:00.835Z,71.60
2022-08-19T04:15:02.610Z,73.20
2022-08-19T04:25:04.416Z,71.50
2022-08-19T04:35:17.416Z,72.50
2022-08-19T04:45:22.864Z,71.80
2022-08-19T04:55:24.936Z,74.20
2022-08-19T05:05:27.238Z,74.20
2022-08-19T05:15:29.574Z,76.60
2022-08-19T05:25:31.556Z,73.80
2022-08-19T05:35:34.611Z,73.70
2022-08-19T05:45:42.211Z,75.70
2022-08-19T05:55:44.254Z,76.40
2022-08-19T06:05:51.999Z,76.80
2022-08-19T06:15:57.713Z,70.10
2022-08-19T06:25:59.695Z,68.50
2022-08-19T06:36:01.994Z,61.50
2022-08-19T06:46:07.096Z,57.60
2022-08-19T06:56:12.153Z,57.50
2022-08-19T07:06:43.073Z,53.30
2022-08-19T07:16:43.538Z,48.80
2022-08-19T07:26:51.661Z,51.90
2022-08-19T07:36:55.399Z,47.10
2022-08-19T07:47:00.096Z,37.80
2022-08-19T07:57:02.741Z,32.90
2022-08-19T08:07:23.014Z,32.30
2022-08-19T08:17:30.844Z,32.90
2022-08-19T08:27:46.953Z,32.40
2022-08-19T08:37:57.026Z,32.20
2022-08-19T08:48:07.652Z,32.80
2022-08-19T08:58:54.704Z,30.10
2022-08-19T09:09:21.915Z,27.00
2022-08-19T09:19:24.691Z,21.70
2022-08-19T09:29:27.531Z,21.00
2022-08-19T09:39:35.975Z,22.10
2022-08-19T09:49:40.534Z,20.50
2022-08-19T09:59:43.453Z,18.10
2022-08-19T10:09:45.215Z,17.40
2022-08-19T10:19:55.755Z,18.20
2022-08-19T10:29:59.993Z,18.00
2022-08-19T10:40:04.914Z,15.50
2022-08-19T10:50:28.749Z,14.90
2022-08-19T11:00:34.984Z,12.90
2022-08-19T11:10:38.813Z,10.90
2022-08-19T11:20:40.452Z,11.10
2022-08-19T11:30:43.077Z,10.60
2022-08-19T11:40:45.170Z,8.30
2022-08-19T11:50:57.753Z,7.20
2022-08-19T12:00:59.493Z,7.20
2022-08-19T12:11:04.597Z,6.50
2022-08-19T12:21:07.174Z,5.90
2022-08-19T12:31:28.415Z,6.10
2022-08-19T12:41:36.153Z,6.90
2022-08-19T12:51:45.793Z,6.20
2022-08-19T13:01:49.594Z,5.20
2022-08-19T13:11:52.476Z,3.80
2022-08-19T13:21:57.804Z,4.20
2022-08-19T13:32:26.676Z,3.10
2022-08-19T13:42:30.153Z,3.90
2022-08-19T13:52:32.126Z,3.60
2022-08-19T14:02:34.164Z,2.90
2022-08-19T14:12:37.794Z,3.60
2022-08-19T14:22:43.293Z,3.60
2022-08-19T14:32:48.755Z,3.90
2022-08-19T14:42:51.414Z,3.80
2022-08-19T14:53:03.608Z,2.90
2022-08-19T15:03:11.932Z,3.20
2022-08-19T15:13:13.875Z,2.40
2022-08-19T15:23:16.095Z,3.20
2022-08-19T15:33:21.615Z,2.90
2022-08-19T15:43:24.475Z,4.30
2022-08-19T15:53:28.596Z,3.40
2022-08-19T16:03:49.538Z,3.40
2022-08-19T16:13:57.276Z,3.60
2022-08-19T16:24:02.633Z,2.40
2022-08-19T16:34:04.719Z,3.20
2022-08-19T16:44:07.855Z,3.90
2022-08-19T16:54:10.297Z,4.80
2022-08-19T17:04:13.171Z,5.30
2022-08-19T17:14:17.155Z,6.10
2022-08-19T17:24:19.093Z,6.50
2022-08-19T17:34:20.930Z,6.90
2022-08-19T17:44:23.090Z,7.80
2022-08-19T17:54:24.893Z,7.90
2022-08-19T18:04:37.936Z,8.10
2022-08-19T18:14:41.718Z,7.40
2022-08-19T18:24:45.995Z,8.00
2022-08-19T18:34:48.594Z,10.20
2022-08-19T18:45:08.950Z,9.90
2022-08-19T18:55:11.874Z,9.60
2022-08-19T19:05:17.359Z,10.10
2022-08-19T19:15:20.891Z,9.60
2022-08-19T19:25:22.855Z,10.30
2022-08-19T19:35:25.513Z,10.70
2022-08-19T19:45:28.272Z,11.60
2022-08-19T19:55:31.034Z,11.30
2022-08-19T20:05:32.796Z,12.60
2022-08-19T20:15:37.943Z,14.50
2022-08-19T20:25:43.196Z,13.80
2022-08-19T20:35:47.256Z,13.70
2022-08-19T20:45:49.712Z,14.30
2022-08-19T20:55:53.435Z,15.80
2022-08-19T21:06:02.114Z,16.80
2022-08-19T21:16:04.215Z,17.80
2022-08-19T21:26:14.194Z,18.70
2022-08-19T21:36:22.931Z,19.50
2022-08-19T21:46:26.933Z,20.80
2022-08-19T21:56:29.490Z,21.50
2022-08-19T22:06:32.136Z,20.70
2022-08-19T22:16:35.495Z,21.10
2022-08-19T22:26:37.474Z,19.10
2022-08-19T22:36:40.488Z,21.00
2022-08-19T22:46:43.357Z,23.80
2022-08-19T22:56:47.693Z,25.10
2022-08-19T23:06:49.571Z,26.10
2022-08-19T23:16:54.154Z,25.40
2022-08-19T23:27:16.696Z,26.00
2022-08-19T23:37:18.453Z,26.70
2022-08-19T23:47:20.415Z,27.00
2022-08-19T23:57:22.530Z,28.60
